createdAt,value
2023-01-29T04:39:55.228Z,22.90
2023-01-29T04:42:35.369Z,22.73
2023-01-29T04:45:25.416Z,22.63
2023-01-29T04:48:13.845Z,23.27
2023-01-29T04:50:46.812Z,22.40
2023-01-29T04:53:23.785Z,22.45
2023-01-29T04:55:55.810Z,23.48
2023-01-29T04:58:25.055Z,23.30
2023-01-29T05:00:54.222Z,24.42
2023-01-29T05:03:24.613Z,23.13
2023-01-29T05:05:51.535Z,22.60
2023-01-29T05:08:21.380Z,23.80
2023-01-29T05:10:54.620Z,22.92
2023-01-29T05:13:23.144Z,23.08
2023-01-29T05:15:56.578Z,21.67
2023-01-29T05:18:23.183Z,22.13
2023-01-29T05:20:50.090Z,22.92
2023-01-29T05:23:22.550Z,24.58
2023-01-29T05:25:50.517Z,23.73
2023-01-29T05:28:17.425Z,23.38
2023-01-29T05:30:52.354Z,23.73
2023-01-29T05:33:27.053Z,23.92
2023-01-29T05:35:53.965Z,24.48
2023-01-29T05:38:20.391Z,22.50
2023-01-29T05:40:47.408Z,23.10
2023-01-29T05:43:16.399Z,22.05
2023-01-29T05:45:43.013Z,23.65
2023-01-29T05:48:09.541Z,23.42
2023-01-29T05:50:36.627Z,22.77
2023-01-29T05:53:03.028Z,23.83
2023-01-29T05:55:29.608Z,25.10
2023-01-29T05:57:56.151Z,24.42
2023-01-29T06:00:22.612Z,24.77
2023-01-29T06:02:49.586Z,22.50
2023-01-29T06:05:16.029Z,24.35
2023-01-29T06:07:45.352Z,23.67
2023-01-29T06:10:15.022Z,24.73
2023-01-29T06:12:43.149Z,23.63
2023-01-29T06:15:10.873Z,23.98
2023-01-29T06:17:37.378Z,24.10
2023-01-29T06:20:05.136Z,24.70
2023-01-29T06:22:32.893Z,24.02
2023-01-29T06:24:59.232Z,23.48
2023-01-29T06:27:25.678Z,24.25
2023-01-29T06:29:52.151Z,24.02
2023-01-29T06:32:18.625Z,25.20
2023-01-29T06:34:45.027Z,24.20
2023-01-29T06:37:11.453Z,24.10
2023-01-29T06:39:37.860Z,23.60
2023-01-29T06:42:04.386Z,24.38
2023-01-29T06:44:30.790Z,25.10
2023-01-29T06:46:57.373Z,24.45
2023-01-29T06:49:23.811Z,24.55
2023-01-29T06:51:50.221Z,24.80
2023-01-29T06:54:16.630Z,25.08
2023-01-29T06:56:43.025Z,25.85
2023-01-29T06:59:11.082Z,26.13
2023-01-29T07:01:41.061Z,25.75
2023-01-29T07:04:07.550Z,25.85
2023-01-29T07:06:35.067Z,26.60
2023-01-29T07:09:02.357Z,26.00
2023-01-29T07:11:28.879Z,24.48
2023-01-29T07:13:55.306Z,27.25
2023-01-29T07:16:21.857Z,24.42
2023-01-29T07:18:48.284Z,26.17
2023-01-29T07:21:14.786Z,24.17
2023-01-29T07:23:41.271Z,26.15
2023-01-29T07:26:07.827Z,27.20
2023-01-29T07:28:38.196Z,23.50
2023-01-29T07:31:05.331Z,25.23
2023-01-29T07:33:32.284Z,24.95
2023-01-29T07:35:58.935Z,24.73
2023-01-29T07:38:25.648Z,24.42
2023-01-29T07:40:53.042Z,23.48
2023-01-29T07:43:19.462Z,23.70
2023-01-29T07:45:46.038Z,23.20
2023-01-29T07:48:13.373Z,23.50
2023-01-29T07:50:40.487Z,24.48
2023-01-29T07:53:07.332Z,24.42
2023-01-29T07:55:33.952Z,25.05
2023-01-29T07:58:03.046Z,24.95
2023-01-29T08:00:31.341Z,23.92
2023-01-29T08:03:06.115Z,24.20
2023-01-29T08:05:33.085Z,24.45
2023-01-29T08:08:06.597Z,24.35
2023-01-29T08:10:35.248Z,24.55
2023-01-29T08:13:03.035Z,24.10
2023-01-29T08:15:29.884Z,25.33
2023-01-29T08:17:58.285Z,25.73
2023-01-29T08:20:25.782Z,24.98
2023-01-29T08:23:06.353Z,24.45
2023-01-29T08:25:33.224Z,23.67
2023-01-29T08:28:00.504Z,23.17
2023-01-29T08:30:30.455Z,22.92
2023-01-29T08:32:57.038Z,23.60
2023-01-29T08:35:24.049Z,22.88
2023-01-29T08:37:59.309Z,23.35
2023-01-29T08:40:26.981Z,22.67
2023-01-29T08:42:53.368Z,22.77
2023-01-29T08:45:19.765Z,23.50
2023-01-29T08:47:47.847Z,23.00
2023-01-29T08:50:15.368Z,23.17
2023-01-29T08:52:43.219Z,23.10
2023-01-29T08:55:10.451Z,20.63
2023-01-29T08:57:37.972Z,20.90
2023-01-29T09:00:06.017Z,20.15
2023-01-29T09:02:32.752Z,19.67
2023-01-29T09:04:59.273Z,20.25
2023-01-29T09:07:25.719Z,21.08
2023-01-29T09:09:52.190Z,20.13
2023-01-29T09:12:18.631Z,20.98
2023-01-29T09:14:45.112Z,19.88
2023-01-29T09:17:11.514Z,19.80
2023-01-29T09:19:37.927Z,21.08
2023-01-29T09:22:04.328Z,20.00
2023-01-29T09:24:30.820Z,20.48
2023-01-29T09:26:57.235Z,19.95
2023-01-29T09:29:23.620Z,19.98
2023-01-29T09:31:50.148Z,21.08
2023-01-29T09:34:16.627Z,20.48
2023-01-29T09:36:43.181Z,19.27
2023-01-29T09:39:09.748Z,20.40
2023-01-29T09:41:52.377Z,20.90
2023-01-29T09:44:50.084Z,19.52
2023-01-29T09:47:18.382Z,19.27
2023-01-29T09:50:07.193Z,18.77
2023-01-29T09:52:38.808Z,19.63
2023-01-29T09:55:39.323Z,19.30
2023-01-29T09:58:32.013Z,18.58
2023-01-29T10:01:10.304Z,18.95
2023-01-29T10:03:55.121Z,19.20
2023-01-29T10:06:33.559Z,19.48
2023-01-29T10:09:18.517Z,18.17
2023-01-29T10:12:11.258Z,19.00
2023-01-29T10:14:56.053Z,18.45
2023-01-29T10:17:47.152Z,18.58
2023-01-29T10:20:42.098Z,17.98
2023-01-29T10:23:30.098Z,17.67
2023-01-29T10:25:56.693Z,17.83
2023-01-29T10:28:34.386Z,16.98
2023-01-29T10:31:07.306Z,18.50
2023-01-29T10:33:49.018Z,18.52
2023-01-29T10:36:28.646Z,18.35
2023-01-29T10:38:55.994Z,17.92
2023-01-29T10:41:25.902Z,18.48
2023-01-29T10:44:01.235Z,18.65
2023-01-29T10:46:33.746Z,18.77
2023-01-29T10:49:15.183Z,19.35
2023-01-29T10:51:57.091Z,19.02
2023-01-29T10:54:50.114Z,19.27
2023-01-29T10:57:25.506Z,19.02
2023-01-29T11:00:07.921Z,19.25
2023-01-29T11:02:34.501Z,19.80
2023-01-29T11:05:01.213Z,20.17
2023-01-29T11:07:28.112Z,18.73
2023-01-29T11:10:15.082Z,19.80
2023-01-29T11:12:43.727Z,20.33
2023-01-29T11:15:32.375Z,19.77
2023-01-29T11:18:10.561Z,19.85
2023-01-29T11:20:37.350Z,18.60
2023-01-29T11:23:04.088Z,20.65
2023-01-29T11:25:32.778Z,19.88
2023-01-29T11:28:01.734Z,20.92
2023-01-29T11:30:32.427Z,19.70
2023-01-29T11:33:23.515Z,21.48
2023-01-29T11:35:52.505Z,22.27
2023-01-29T11:38:26.930Z,21.98
2023-01-29T11:41:04.428Z,20.77
2023-01-29T11:43:31.882Z,22.20
2023-01-29T11:46:05.212Z,22.27
2023-01-29T11:48:44.112Z,21.00
2023-01-29T11:54:25.327Z,20.75
2023-01-29T12:00:03.084Z,20.80
2023-01-29T12:03:35.055Z,21.02
2023-01-29T12:06:41.572Z,21.42
2023-01-29T12:10:10.784Z,21.00
2023-01-29T12:13:36.064Z,21.38
2023-01-29T12:16:14.793Z,21.73
2023-01-29T12:22:54.856Z,20.65
2023-01-29T12:25:28.265Z,19.88
2023-01-29T12:31:35.069Z,22.00
2023-01-29T12:34:25.563Z,21.30
2023-01-29T12:41:44.062Z,20.42
2023-01-29T12:48:22.203Z,19.20
2023-01-29T12:55:48.867Z,20.23
2023-01-29T13:01:02.978Z,19.63
2023-01-29T13:03:59.151Z,20.60
2023-01-29T13:06:51.787Z,20.50
2023-01-29T13:15:47.202Z,21.65
2023-01-29T13:19:15.483Z,21.48
2023-01-29T13:21:44.024Z,21.80
2023-01-29T13:24:36.337Z,23.30
2023-01-29T13:27:33.239Z,22.30
2023-01-29T13:30:29.130Z,21.52
2023-01-29T13:36:18.003Z,23.08
2023-01-29T13:39:27.409Z,18.70
2023-01-29T13:41:56.213Z,22.92
2023-01-29T13:44:39.158Z,24.15
2023-01-29T13:47:39.326Z,25.17
2023-01-29T13:50:18.941Z,24.25
2023-01-29T13:52:54.558Z,24.55
2023-01-29T13:55:31.517Z,25.20
2023-01-29T13:58:03.154Z,26.17
2023-01-29T14:00:35.547Z,25.42
2023-01-29T14:03:04.568Z,27.05
2023-01-29T14:05:31.211Z,27.20
2023-01-29T14:08:02.118Z,27.48
2023-01-29T14:10:31.651Z,27.88
2023-01-29T14:13:03.855Z,28.20
2023-01-29T14:15:38.257Z,26.33
2023-01-29T14:18:10.922Z,26.90
2023-01-29T14:21:05.071Z,26.98
2023-01-29T14:23:41.564Z,27.08
2023-01-29T14:26:37.816Z,27.15
2023-01-29T14:29:16.471Z,26.83
2023-01-29T14:32:12.239Z,28.50
2023-01-29T14:34:47.612Z,25.48
2023-01-29T14:37:17.138Z,28.08
2023-01-29T14:40:12.817Z,28.65
2023-01-29T14:42:52.406Z,29.02
2023-01-29T14:45:35.467Z,28.25
2023-01-29T14:48:38.660Z,29.17
2023-01-29T14:51:17.128Z,29.23
2023-01-29T14:54:14.057Z,27.85
2023-01-29T14:56:46.855Z,29.17
2023-01-29T14:59:21.040Z,30.90
2023-01-29T15:01:53.433Z,29.92
2023-01-29T15:04:27.967Z,30.38
2023-01-29T15:07:09.711Z,31.27
2023-01-29T15:09:51.504Z,31.60
2023-01-29T15:12:24.525Z,30.52
2023-01-29T15:15:03.051Z,30.77
2023-01-29T15:17:46.226Z,32.08
2023-01-29T15:22:53.159Z,28.20
2023-01-29T15:25:21.671Z,28.30
2023-01-29T15:27:49.390Z,31.23
2023-01-29T15:30:22.071Z,30.58
2023-01-29T15:32:49.462Z,31.13
2023-01-29T15:35:22.054Z,33.38
2023-01-29T15:38:00.600Z,32.47
2023-01-29T15:40:27.449Z,30.95
2023-01-29T15:42:54.091Z,31.02
2023-01-29T15:45:31.333Z,32.88
2023-01-29T15:48:05.615Z,33.58
2023-01-29T15:50:39.401Z,33.05
2023-01-29T15:53:10.080Z,33.60
2023-01-29T15:55:36.780Z,33.28
2023-01-29T15:58:04.186Z,31.95
2023-01-29T16:00:31.445Z,33.92
2023-01-29T16:03:00.644Z,31.45
2023-01-29T16:05:33.135Z,32.17
2023-01-29T16:08:00.992Z,33.58
2023-01-29T16:10:31.253Z,32.85
2023-01-29T16:12:58.748Z,34.88
2023-01-29T16:15:34.829Z,34.65
2023-01-29T16:18:04.717Z,34.40
2023-01-29T16:20:37.686Z,33.72
2023-01-29T16:25:33.872Z,32.92
2023-01-29T16:28:04.531Z,35.72
2023-01-29T16:30:31.162Z,36.10
2023-01-29T16:33:03.645Z,34.75
2023-01-29T16:35:30.561Z,37.38
2023-01-29T16:38:03.384Z,34.30
2023-01-29T16:43:16.967Z,34.28
2023-01-29T16:46:01.221Z,33.05
2023-01-29T16:48:32.389Z,33.63
2023-01-29T16:51:20.933Z,34.10
2023-01-29T16:53:57.216Z,37.42
2023-01-29T16:56:25.211Z,34.70
2023-01-29T16:58:53.309Z,35.97
2023-01-29T17:01:21.978Z,36.40
2023-01-29T17:04:13.486Z,36.92
2023-01-29T17:06:46.919Z,32.72
2023-01-29T17:09:25.415Z,33.95
2023-01-29T17:12:05.437Z,35.00
2023-01-29T17:14:34.319Z,35.75
2023-01-29T17:17:07.519Z,33.78
2023-01-29T17:19:33.977Z,35.08
2023-01-29T17:22:04.550Z,34.15
2023-01-29T17:24:31.545Z,33.95
2023-01-29T17:26:58.039Z,32.42
2023-01-29T17:29:28.929Z,35.53
2023-01-29T17:31:56.056Z,35.95
2023-01-29T17:34:23.958Z,33.75
2023-01-29T17:36:50.389Z,37.15
2023-01-29T17:39:23.184Z,37.47
2023-01-29T17:41:56.147Z,36.60
2023-01-29T17:44:23.184Z,34.40
2023-01-29T17:46:49.713Z,36.85
2023-01-29T17:49:25.269Z,36.10
2023-01-29T17:51:53.284Z,38.95
2023-01-29T17:54:20.525Z,35.72
2023-01-29T17:56:47.751Z,35.45
2023-01-29T17:59:16.317Z,36.97
2023-01-29T18:01:43.515Z,36.67
2023-01-29T18:04:10.087Z,35.60
2023-01-29T18:06:36.936Z,36.97
2023-01-29T18:09:04.216Z,36.15
2023-01-29T18:11:30.830Z,37.67
2023-01-29T18:13:57.722Z,40.05
2023-01-29T18:16:25.273Z,37.17
2023-01-29T18:18:52.457Z,35.70
2023-01-29T18:21:19.292Z,37.03
2023-01-29T18:23:45.785Z,35.42
2023-01-29T18:26:13.194Z,40.05
2023-01-29T18:28:40.320Z,37.15
2023-01-29T18:31:06.848Z,38.63
2023-01-29T18:33:34.214Z,37.47
2023-01-29T18:36:00.758Z,39.08
2023-01-29T18:38:27.477Z,35.03
2023-01-29T18:40:53.881Z,33.42
2023-01-29T18:43:20.313Z,33.38
2023-01-29T18:45:46.811Z,34.13
2023-01-29T18:48:14.191Z,34.58
2023-01-29T18:51:10.303Z,34.33
2023-01-29T18:53:34.995Z,34.03
2023-01-29T18:56:05.969Z,35.38
2023-01-29T18:58:35.799Z,35.60
2023-01-29T19:01:10.055Z,32.72
2023-01-29T19:03:37.840Z,32.67
2023-01-29T19:06:07.007Z,33.28
2023-01-29T19:08:34.287Z,32.83
2023-01-29T19:11:03.762Z,33.65
2023-01-29T19:13:33.946Z,33.45
2023-01-29T19:16:00.862Z,33.80
2023-01-29T19:18:28.308Z,32.03
2023-01-29T19:20:55.236Z,34.83
2023-01-29T19:23:22.786Z,31.25
2023-01-29T19:25:49.323Z,30.77
2023-01-29T19:28:15.835Z,33.15
2023-01-29T19:30:42.322Z,32.75
2023-01-29T19:33:10.423Z,31.35
2023-01-29T19:35:37.056Z,31.63
2023-01-29T19:38:03.986Z,33.97
2023-01-29T19:40:30.469Z,30.80
2023-01-29T19:42:56.945Z,30.95
2023-01-29T19:45:49.945Z,30.35
2023-01-29T19:48:13.346Z,31.92
2023-01-29T19:50:39.811Z,33.20
2023-01-29T19:53:06.340Z,32.25
2023-01-29T19:55:32.910Z,31.98
2023-01-29T19:57:59.535Z,30.52
2023-01-29T20:00:25.912Z,31.45
2023-01-29T20:02:52.377Z,32.63
2023-01-29T20:05:20.182Z,30.17
2023-01-29T20:07:46.856Z,29.08
2023-01-29T20:10:17.420Z,31.42
2023-01-29T20:12:45.369Z,30.33
2023-01-29T20:15:13.200Z,29.23
2023-01-29T20:17:39.632Z,32.33
2023-01-29T20:20:06.794Z,30.40
2023-01-29T20:22:33.366Z,29.30
2023-01-29T20:24:59.821Z,31.52
2023-01-29T20:27:26.256Z,31.88
2023-01-29T20:29:52.798Z,33.05
2023-01-29T20:32:19.349Z,30.55
2023-01-29T20:34:49.548Z,32.00
2023-01-29T20:37:16.039Z,30.23
2023-01-29T20:39:42.469Z,30.42
2023-01-29T20:42:08.851Z,31.45
2023-01-29T20:44:35.292Z,31.15
2023-01-29T20:47:02.644Z,30.45
2023-01-29T20:49:29.153Z,32.08
2023-01-29T20:51:55.586Z,31.35
2023-01-29T20:54:22.201Z,31.17
2023-01-29T20:56:49.014Z,31.05
2023-01-29T20:59:15.667Z,31.25
2023-01-29T21:01:43.179Z,32.35
2023-01-29T21:04:09.589Z,31.40
2023-01-29T21:06:36.190Z,29.95
2023-01-29T21:09:02.581Z,30.65
2023-01-29T21:11:29.154Z,31.08
2023-01-29T21:13:57.717Z,30.13
2023-01-29T21:16:26.106Z,31.17
2023-01-29T21:18:55.896Z,30.35
2023-01-29T21:21:26.442Z,31.33
2023-01-29T21:23:52.923Z,30.27
2023-01-29T21:26:19.335Z,30.65
2023-01-29T21:28:46.295Z,29.83
2023-01-29T21:31:17.654Z,30.38
2023-01-29T21:33:44.636Z,29.45
2023-01-29T21:36:11.485Z,29.30
2023-01-29T21:38:38.641Z,30.17
2023-01-29T21:41:08.065Z,28.98
2023-01-29T21:43:34.526Z,28.90
2023-01-29T21:46:04.962Z,28.10
2023-01-29T21:48:31.766Z,29.77
2023-01-29T21:50:58.159Z,29.88
2023-01-29T21:53:24.676Z,28.95
2023-01-29T21:55:51.719Z,28.90
2023-01-29T21:58:19.759Z,29.80
2023-01-29T22:00:48.706Z,29.08
2023-01-29T22:03:15.581Z,28.80
2023-01-29T22:05:42.130Z,28.55
2023-01-29T22:08:09.521Z,30.05
2023-01-29T22:10:36.517Z,28.65
2023-01-29T22:13:03.518Z,29.48
2023-01-29T22:15:29.932Z,29.80
2023-01-29T22:17:56.343Z,28.30
2023-01-29T22:20:29.857Z,27.38
2023-01-29T22:23:00.475Z,27.10
2023-01-29T22:25:27.311Z,27.55
2023-01-29T22:27:53.790Z,26.60
2023-01-29T22:30:20.591Z,28.67
2023-01-29T22:32:47.126Z,29.17
2023-01-29T22:35:13.727Z,29.27
2023-01-29T22:37:40.167Z,26.98
2023-01-29T22:40:07.290Z,29.90
2023-01-29T22:47:59.984Z,28.83
2023-01-29T22:50:26.493Z,28.65
2023-01-29T22:52:53.454Z,29.85
2023-01-29T22:55:20.035Z,28.70
2023-01-29T22:57:49.540Z,29.70
2023-01-29T23:00:16.829Z,29.58
2023-01-29T23:02:43.467Z,28.58
2023-01-29T23:05:09.956Z,29.08
2023-01-29T23:07:36.573Z,27.50
2023-01-29T23:10:03.883Z,27.98
2023-01-29T23:12:30.302Z,28.80
2023-01-29T23:14:56.725Z,26.48
2023-01-29T23:17:23.276Z,29.17
2023-01-29T23:19:49.623Z,28.98
2023-01-29T23:22:16.163Z,26.83
2023-01-29T23:24:42.546Z,29.13
2023-01-29T23:27:15.898Z,28.33
2023-01-29T23:29:43.327Z,29.20
2023-01-29T23:32:11.093Z,28.08
2023-01-29T23:34:37.620Z,28.80
2023-01-29T23:37:04.789Z,29.23
2023-01-29T23:39:31.735Z,28.85
2023-01-29T23:41:58.315Z,28.27
2023-01-29T23:44:24.818Z,28.50
2023-01-29T23:46:51.301Z,29.65
2023-01-29T23:49:18.725Z,30.50
2023-01-29T23:51:47.515Z,28.73
2023-01-29T23:54:14.138Z,30.05
2023-01-29T23:56:40.634Z,28.27
2023-01-29T23:59:07.208Z,29.30
